CheckWX is a tool to help pilots better visualize weather data.  It is not intended as a substitute for an official pre-flight weather briefing.

23:29:44 UTC

KFYE METAR
Fayette County Airport
Somerville, Tennessee, USA
Current

15 mins ago

KFYE 202315Z AUTO 00000KT 10SM CLR 33/23 A3003 RMK A01
Observed
Aug-20 @ 23:15 UTC
Visibility
10 SM
Flight Rules
VFR
Cloud Levels
  • Clear skies
Temperature
33°C / 91°F
Dewpoint
23°C / 73°F
Heat Index
38°C / 100°F
Humidity
56%
Altimeter
30.03" Hg
Pressure
1016.92 hPa
Previous

35 mins ago

KFYE 202255Z AUTO 17004KT 10SM FEW013 33/23 A3001 RMK A01
Observed
Aug-20 @ 22:55 UTC
Wind
  • 170° at 4 KTS
Visibility
10 SM
Flight Rules
VFR
Cloud Levels
  • Few at 1,300' AGL
Temperature
33°C / 91°F
Dewpoint
23°C / 73°F
Heat Index
38°C / 100°F
Humidity
56%
Altimeter
30.01" Hg
Pressure
1016.22 hPa
Previous

55 mins ago

KFYE 202235Z AUTO 00000KT 10SM CLR 34/22 A3001 RMK A01
Observed
Aug-20 @ 22:35 UTC
Visibility
10 SM
Flight Rules
VFR
Cloud Levels
  • Clear skies
Temperature
34°C / 93°F
Dewpoint
22°C / 72°F
Heat Index
38°C / 100°F
Humidity
49%
Altimeter
30.01" Hg
Pressure
1016.22 hPa